Thorolf Kveldulfsoen — LHNG — position and weather

sailwx.info

Track history (hours):
 
Tides and Currents Weather Stations Pressure Air Temp Water Temp Dewpoint Dewpoint Depression Visibility Wind Speed Wind Dir Waves Ship Positions

Thorolf Kveldulfsoen

Last reported at 2014-Sep-02 06:05 UTC. Time now 2014-Sep-03 07:02 UTC.
Position N 66°00' E 012°32'.

Length 29 m.

Type: High speed craft. MMSI: 257165600.

Date/timePositionNaut miles runAvg speedWind from/ knotsBaromVisibWave heightAir tempDewpointWater temp
2014-Sep-02 06:05N 66°00' E 012°32'  
2014-Aug-29 07:09N 66°02' E 012°38'1721.3
2014-Aug-29 06:22N 66°17' E 012°57'911.4
2014-Aug-29 05:33N 66°23' E 012°40'1515.3
2014-Aug-29 04:34N 66°30' E 012°06'6 5.5
2014-Aug-29 03:31N 66°35' E 012°13'0 0.0
2014-Aug-29 02:33N 66°35' E 012°13'0 0.0
2014-Aug-29 01:29N 66°35' E 012°13'0 0.0
2014-Aug-29 00:24N 66°35' E 012°13'0 0.0
2014-Aug-28 23:23N 66°35' E 012°13'0 0.0
2014-Aug-28 22:07N 66°35' E 012°13'5 2.0
2014-Aug-28 19:34N 66°31' E 012°07'1514.9
2014-Aug-28 18:34N 66°22' E 012°38'1414.0
2014-Aug-28 17:33N 66°33' E 012°16'1211.7
2014-Aug-28 16:34N 66°22' E 012°22'1512.2
2014-Aug-28 15:21N 66°19' E 012°58'2 0.3
2014-Aug-28 06:23N 66°16' E 012°57'1011.6
2014-Aug-28 05:33N 66°23' E 012°38'1414.1
2014-Aug-28 04:33N 66°30' E 012°09'5 0.6
2014-Aug-27 20:12N 66°35' E 012°13'610.0
2014-Aug-27 19:33N 66°29' E 012°12'1313.3
2014-Aug-27 18:33N 66°23' E 012°42'1715.4
2014-Aug-27 17:28N 66°35' E 012°12'1314.1
2014-Aug-27 16:34N 66°23' E 012°26'1311.7
2014-Aug-27 15:24N 66°18' E 012°57'  
2014-Aug-25 06:15N 66°01' E 012°32'  
Track history (hours):
 
Tides and Currents Weather Stations Pressure Air Temp Water Temp Dewpoint Dewpoint Depression Visibility Wind Speed Wind Dir Waves Ship Positions

Thorolf Kveldulfsoen

Last reported at 2014-Sep-02 06:05 UTC. Time now 2014-Sep-03 07:02 UTC.
Position N 66°00' E 012°32'.

Length 29 m.

Type: High speed craft. MMSI: 257165600.

Date/timePositionNaut miles runAvg speedWind from/ knotsBaromVisibWave heightAir tempDewpointWater temp
2014-Sep-02 06:05N 66°00' E 012°32'  
2014-Aug-29 07:09N 66°02' E 012°38'1721.3
2014-Aug-29 06:22N 66°17' E 012°57'911.4
2014-Aug-29 05:33N 66°23' E 012°40'1515.3
2014-Aug-29 04:34N 66°30' E 012°06'6 5.5
2014-Aug-29 03:31N 66°35' E 012°13'0 0.0
2014-Aug-29 02:33N 66°35' E 012°13'0 0.0
2014-Aug-29 01:29N 66°35' E 012°13'0 0.0
2014-Aug-29 00:24N 66°35' E 012°13'0 0.0
2014-Aug-28 23:23N 66°35' E 012°13'0 0.0
2014-Aug-28 22:07N 66°35' E 012°13'5 2.0
2014-Aug-28 19:34N 66°31' E 012°07'1514.9
2014-Aug-28 18:34N 66°22' E 012°38'1414.0
2014-Aug-28 17:33N 66°33' E 012°16'1211.7
2014-Aug-28 16:34N 66°22' E 012°22'1512.2
2014-Aug-28 15:21N 66°19' E 012°58'2 0.3
2014-Aug-28 06:23N 66°16' E 012°57'1011.6
2014-Aug-28 05:33N 66°23' E 012°38'1414.1
2014-Aug-28 04:33N 66°30' E 012°09'5 0.6
2014-Aug-27 20:12N 66°35' E 012°13'610.0
2014-Aug-27 19:33N 66°29' E 012°12'1313.3
2014-Aug-27 18:33N 66°23' E 012°42'1715.4
2014-Aug-27 17:28N 66°35' E 012°12'1314.1
2014-Aug-27 16:34N 66°23' E 012°26'1311.7
2014-Aug-27 15:24N 66°18' E 012°57'  
2014-Aug-25 06:15N 66°01' E 012°32'  

Dump ship's entire track history